CheckWX is a tool to help pilots better visualize weather data.  It is not intended as a substitute for an official pre-flight weather briefing.

05:31:09 UTC

KESF METAR
Esler Regional Airport
Alexandria, Louisiana, USA
Current

38 mins ago

KESF 190453Z AUTO 36008G19KT 10SM CLR 13/08 A3028 RMK AO2 SLP251 T01280083
Observed
Jan-19 @ 04:53 UTC
Wind
  • 360° at 8 KTS
  • Gusting to 19 KTS
Visibility
10 SM
Flight Rules
VFR
Cloud Levels
  • Clear skies
Temperature
13°C / 55°F
Dewpoint
C / 46°F
Humidity
72%
Altimeter
30.28" Hg
Pressure
1025.42 hPa
Previous

2 hours ago

KESF 190353Z AUTO VRB04KT 10SM FEW016 15/13 A3024 RMK AO2 SLP239 T01500128 $
Observed
Jan-19 @ 03:53 UTC
Wind
  • Variable at 4 KTS
Visibility
10 SM
Flight Rules
VFR
Cloud Levels
  • Few at 1,600' AGL
Temperature
15°C / 59°F
Dewpoint
13°C / 55°F
Humidity
88%
Altimeter
30.24" Hg
Pressure
1024.02 hPa
Previous

3 hours ago

KESF 190253Z AUTO VRB03KT 10SM BKN080 16/14 A3023 RMK AO2 SLP237 T01560144 51022 $
Observed
Jan-19 @ 02:53 UTC
Wind
  • Variable at 3 KTS
Visibility
10 SM
Flight Rules
VFR
Cloud Levels
  • Broken at 8,000' AGL
Temperature
16°C / 61°F
Dewpoint
14°C / 57°F
Humidity
88%
Altimeter
30.23" Hg
Pressure
1023.72 hPa